createdAt,value
2023-05-19T00:00:26.032Z,35.9308
2023-05-19T00:01:27.861Z,35.9358
2023-05-19T00:02:29.787Z,35.9388
2023-05-19T00:03:31.625Z,35.9428
2023-05-19T00:04:33.373Z,35.9519
2023-05-19T00:05:35.242Z,35.9632
2023-05-19T00:06:37.048Z,35.9698
2023-05-19T00:07:38.910Z,35.9794
2023-05-19T00:08:40.739Z,35.9848
2023-05-19T00:09:42.557Z,35.9944
2023-05-19T00:10:44.418Z,36.0044
2023-05-19T00:11:46.255Z,36.0123
2023-05-19T00:12:48.191Z,36.0223
2023-05-19T00:13:49.926Z,36.0247
2023-05-19T00:14:51.745Z,36.0241
2023-05-19T00:15:53.625Z,36.0379
2023-05-19T00:16:56.043Z,36.0448
2023-05-19T00:17:57.303Z,36.0516
2023-05-19T00:18:59.111Z,36.0695
2023-05-19T00:20:00.954Z,36.0744
2023-05-19T00:21:02.766Z,36.0867
2023-05-19T00:22:04.624Z,36.0929
2023-05-19T00:23:06.462Z,36.0920
2023-05-19T00:24:08.304Z,36.1090
2023-05-19T00:25:10.124Z,36.1149
2023-05-19T00:26:11.983Z,36.1193
2023-05-19T00:27:13.809Z,36.1253
2023-05-19T00:28:15.650Z,36.1408
2023-05-19T00:29:17.498Z,36.1510
2023-05-19T00:30:19.324Z,36.1551
2023-05-19T00:31:21.180Z,36.1600
2023-05-19T00:32:23.040Z,36.1539
2023-05-19T00:33:24.830Z,36.1411
2023-05-19T00:34:26.685Z,36.1365
2023-05-19T00:35:28.500Z,36.1373
2023-05-19T00:36:30.363Z,36.1377
2023-05-19T00:37:32.190Z,36.1311
2023-05-19T00:38:34.046Z,36.1346
2023-05-19T00:39:35.882Z,36.1384
2023-05-19T00:40:37.706Z,36.1512
2023-05-19T00:41:39.564Z,36.1569
2023-05-19T00:42:41.408Z,36.1582
2023-05-19T00:43:43.228Z,36.1586
2023-05-19T00:44:45.073Z,36.1587
2023-05-19T00:45:46.928Z,36.1610
2023-05-19T00:46:48.793Z,36.1570
2023-05-19T00:47:50.600Z,36.1656
2023-05-19T00:48:52.475Z,36.1708
2023-05-19T00:49:54.274Z,36.1670
2023-05-19T00:50:56.125Z,36.1613
2023-05-19T00:51:57.972Z,36.1669
2023-05-19T00:52:59.801Z,36.1573
2023-05-19T00:54:01.654Z,36.1625
2023-05-19T00:55:03.483Z,36.1620
2023-05-19T00:56:05.342Z,36.1602
2023-05-19T00:57:07.169Z,36.1588
2023-05-19T00:58:08.998Z,36.1577
2023-05-19T00:59:10.838Z,36.1554
2023-05-19T01:00:12.700Z,36.1540
2023-05-19T01:01:14.648Z,36.1634
2023-05-19T01:02:16.361Z,36.1694
2023-05-19T01:03:18.253Z,36.1832
2023-05-19T01:04:20.051Z,36.2019
2023-05-19T01:05:21.883Z,36.2066
2023-05-19T01:06:23.720Z,36.2187
2023-05-19T01:07:25.545Z,36.2408
2023-05-19T01:08:27.413Z,36.2593
2023-05-19T01:09:29.275Z,36.2759
2023-05-19T01:10:31.166Z,36.2982
2023-05-19T01:11:32.904Z,36.3125
2023-05-19T01:12:34.760Z,36.3345
2023-05-19T01:13:36.778Z,36.3539
2023-05-19T01:14:38.432Z,36.3726
2023-05-19T01:15:40.280Z,36.3950
2023-05-19T01:16:42.129Z,36.4047
2023-05-19T01:17:43.961Z,36.4218
2023-05-19T01:18:45.828Z,36.4303
2023-05-19T01:19:47.635Z,36.4517
2023-05-19T01:20:49.464Z,36.4662
2023-05-19T01:21:51.310Z,36.4768
2023-05-19T01:22:53.141Z,36.4930
2023-05-19T01:23:54.970Z,36.5105
2023-05-19T01:24:56.819Z,36.5142
2023-05-19T01:25:58.638Z,36.5208
2023-05-19T01:27:00.504Z,36.5104
2023-05-19T01:28:02.315Z,36.4980
2023-05-19T01:29:04.166Z,36.4885
2023-05-19T01:30:05.990Z,36.4834
2023-05-19T01:31:07.840Z,36.4731
2023-05-19T01:32:09.769Z,36.4812
2023-05-19T01:33:11.525Z,36.4837
2023-05-19T01:34:13.353Z,36.4826
2023-05-19T01:35:15.195Z,36.4821
2023-05-19T01:36:17.015Z,36.4746
2023-05-19T01:37:18.874Z,36.4707
2023-05-19T01:38:20.728Z,36.4635
2023-05-19T01:39:22.551Z,36.4511
2023-05-19T01:40:24.378Z,36.4457
2023-05-19T01:41:26.214Z,36.4439
2023-05-19T01:42:28.067Z,36.4398
2023-05-19T01:43:29.888Z,36.4417
2023-05-19T01:44:31.741Z,36.4356
2023-05-19T01:45:33.620Z,36.4340
2023-05-19T01:46:35.584Z,36.4326
2023-05-19T01:47:37.294Z,36.4357
2023-05-19T01:48:39.077Z,36.4402
2023-05-19T01:49:40.933Z,36.4393
2023-05-19T01:50:42.754Z,36.4315
2023-05-19T01:51:44.628Z,36.4221
2023-05-19T01:52:46.450Z,36.4123
2023-05-19T01:53:48.280Z,36.4039
2023-05-19T01:54:50.120Z,36.3925
2023-05-19T01:55:51.989Z,36.3805
2023-05-19T01:56:53.803Z,36.3712
2023-05-19T01:57:55.649Z,36.3677
2023-05-19T01:58:57.492Z,36.3653
2023-05-19T01:59:59.311Z,36.3666
2023-05-19T02:01:01.255Z,36.3658
2023-05-19T02:02:02.999Z,36.3714
2023-05-19T02:03:04.925Z,36.3692
2023-05-19T02:04:06.714Z,36.3729
2023-05-19T02:05:08.511Z,36.3792
2023-05-19T02:06:10.355Z,36.3906
2023-05-19T02:07:12.199Z,36.3856
2023-05-19T02:08:14.023Z,36.3737
2023-05-19T02:09:15.869Z,36.3725
2023-05-19T02:10:17.717Z,36.3615
2023-05-19T02:11:19.540Z,36.3649
2023-05-19T02:12:21.388Z,36.3693
2023-05-19T02:13:23.208Z,36.3620
2023-05-19T02:14:25.075Z,36.3650
2023-05-19T02:15:26.893Z,36.3659
2023-05-19T02:16:28.774Z,36.3571
2023-05-19T02:17:30.593Z,36.3549
2023-05-19T02:18:32.412Z,36.3540
2023-05-19T02:19:34.273Z,36.3531
2023-05-19T02:20:36.074Z,36.3490
2023-05-19T02:21:37.924Z,36.3423
2023-05-19T02:22:39.781Z,36.3418
2023-05-19T02:23:41.586Z,36.3387
2023-05-19T02:24:43.425Z,36.3399
2023-05-19T02:25:45.259Z,36.3453
2023-05-19T02:26:47.106Z,36.3531
2023-05-19T02:27:48.944Z,36.3572
2023-05-19T02:28:50.770Z,36.3616
2023-05-19T02:29:52.640Z,36.3665
2023-05-19T02:30:54.473Z,36.3667
2023-05-19T02:31:56.305Z,36.3607
2023-05-19T02:32:58.207Z,36.3610
2023-05-19T02:33:59.970Z,36.3550
2023-05-19T02:35:01.802Z,36.3564
2023-05-19T02:36:03.641Z,36.3582
2023-05-19T02:37:05.485Z,36.3597
2023-05-19T02:38:07.321Z,36.3693
2023-05-19T02:39:09.148Z,36.3769
2023-05-19T02:40:11.032Z,36.3777
2023-05-19T02:41:12.826Z,36.3848
2023-05-19T02:42:14.665Z,36.3984
2023-05-19T02:43:16.503Z,36.4025
2023-05-19T02:44:18.340Z,36.3931
2023-05-19T02:45:20.200Z,36.3859
2023-05-19T02:46:22.020Z,36.3966
2023-05-19T02:47:23.949Z,36.4021
2023-05-19T02:48:25.772Z,36.4062
2023-05-19T02:49:27.615Z,36.4174
2023-05-19T02:50:29.519Z,36.4263
2023-05-19T02:51:31.274Z,36.4263
2023-05-19T02:52:33.132Z,36.4290
2023-05-19T02:53:34.965Z,36.4329
2023-05-19T02:54:36.782Z,36.4330
2023-05-19T02:55:38.618Z,36.4368
2023-05-19T02:56:40.471Z,36.4332
2023-05-19T02:57:42.307Z,36.4323
2023-05-19T02:58:44.132Z,36.4330
2023-05-19T02:59:45.988Z,36.4416
2023-05-19T03:00:47.819Z,36.4478
2023-05-19T03:01:49.688Z,36.4584
2023-05-19T03:02:51.573Z,36.4668
2023-05-19T03:03:53.470Z,36.4736
2023-05-19T03:04:55.150Z,36.4796
2023-05-19T03:05:57.007Z,36.4849
2023-05-19T03:06:58.855Z,36.4945
2023-05-19T03:08:00.693Z,36.4972
2023-05-19T03:09:02.517Z,36.5022
2023-05-19T03:10:04.356Z,36.5090
2023-05-19T03:11:06.183Z,36.5188
2023-05-19T03:12:08.086Z,36.5258
2023-05-19T03:13:09.892Z,36.5259
2023-05-19T03:14:11.696Z,36.5235
2023-05-19T03:15:13.526Z,36.5325
2023-05-19T03:16:15.473Z,36.5316
2023-05-19T03:17:17.252Z,36.5277
2023-05-19T03:18:19.154Z,36.5321
2023-05-19T03:19:20.897Z,36.5337
2023-05-19T03:20:22.734Z,36.5389
2023-05-19T03:21:24.582Z,36.5441
2023-05-19T03:22:26.392Z,36.5510
2023-05-19T03:23:28.267Z,36.5530
2023-05-19T03:24:30.086Z,36.5549
2023-05-19T03:25:31.907Z,36.5506
2023-05-19T03:26:33.734Z,36.5474
2023-05-19T03:27:35.588Z,36.5512
2023-05-19T03:28:37.410Z,36.5452
2023-05-19T03:29:39.243Z,36.5479
2023-05-19T03:30:41.099Z,36.5471
2023-05-19T03:31:42.947Z,36.5527
2023-05-19T03:32:44.864Z,36.5627
2023-05-19T03:33:46.598Z,36.5780
2023-05-19T03:34:48.445Z,36.5762
2023-05-19T03:35:50.289Z,36.5789
2023-05-19T03:36:52.113Z,36.5861
2023-05-19T03:37:53.956Z,36.5935
2023-05-19T03:38:55.813Z,36.5957
2023-05-19T03:39:57.640Z,36.5945
2023-05-19T03:40:59.464Z,36.6048
2023-05-19T03:42:01.338Z,36.6063
2023-05-19T03:43:03.160Z,36.6101
2023-05-19T03:44:04.994Z,36.6176
2023-05-19T03:45:06.848Z,36.6235
2023-05-19T03:46:08.732Z,36.6300
2023-05-19T03:47:10.503Z,36.6266
2023-05-19T03:48:12.379Z,36.6251
2023-05-19T03:49:14.202Z,36.6285
2023-05-19T03:50:16.026Z,36.6254
2023-05-19T03:51:17.870Z,36.6361
2023-05-19T03:52:19.698Z,36.6367
2023-05-19T03:53:21.553Z,36.6420
2023-05-19T03:54:23.399Z,36.6555
2023-05-19T03:55:25.207Z,36.6605
2023-05-19T03:56:27.055Z,36.6598
2023-05-19T03:57:28.913Z,36.6549
2023-05-19T03:58:30.723Z,36.6501
2023-05-19T03:59:32.587Z,36.6549
2023-05-19T04:00:34.636Z,36.6608
2023-05-19T04:01:36.241Z,36.6666
2023-05-19T04:02:38.328Z,36.6688
2023-05-19T04:03:39.961Z,36.6692
2023-05-19T04:04:41.818Z,36.6727
2023-05-19T04:05:43.612Z,36.6769
2023-05-19T04:06:45.446Z,36.6763
2023-05-19T04:07:47.277Z,36.6708
2023-05-19T04:08:49.117Z,36.6690
2023-05-19T04:09:50.982Z,36.6663
2023-05-19T04:10:52.811Z,36.6696
2023-05-19T04:11:54.633Z,36.6776
2023-05-19T04:12:56.495Z,36.6859
2023-05-19T04:13:58.352Z,36.6926
2023-05-19T04:15:00.202Z,36.6944
2023-05-19T04:16:02.076Z,36.7011
2023-05-19T04:17:03.864Z,36.7045
2023-05-19T04:18:05.706Z,36.7052
2023-05-19T04:19:07.552Z,36.7232
2023-05-19T04:20:09.376Z,36.7313
2023-05-19T04:21:11.203Z,36.7326
2023-05-19T04:22:13.043Z,36.7326
2023-05-19T04:23:14.886Z,36.7442
2023-05-19T04:24:16.741Z,36.7583
2023-05-19T04:25:18.576Z,36.7716
2023-05-19T04:26:20.420Z,36.7839
2023-05-19T04:27:22.241Z,36.8008
2023-05-19T04:28:24.092Z,36.8064
2023-05-19T04:29:25.966Z,36.8227
2023-05-19T04:30:27.790Z,36.8399
2023-05-19T04:31:29.636Z,36.8531
2023-05-19T04:32:31.483Z,36.8633
2023-05-19T04:33:33.301Z,36.8729
2023-05-19T04:34:35.177Z,36.8714
2023-05-19T04:35:36.974Z,36.8912
2023-05-19T04:36:38.825Z,36.9003
2023-05-19T04:37:40.642Z,36.9074
2023-05-19T04:38:42.501Z,36.9341
2023-05-19T04:39:44.339Z,36.9516
2023-05-19T04:40:46.177Z,36.9667
2023-05-19T04:41:48.008Z,36.9705
2023-05-19T04:42:49.869Z,36.9825
2023-05-19T04:43:51.687Z,36.9917
2023-05-19T04:44:53.523Z,37.0063
2023-05-19T04:45:55.379Z,37.0140
2023-05-19T04:46:57.260Z,37.0261
2023-05-19T04:47:59.099Z,37.0496
2023-05-19T04:49:00.890Z,37.0537
2023-05-19T04:50:02.735Z,37.0574
2023-05-19T04:51:04.571Z,37.0610
2023-05-19T04:52:06.427Z,37.0652
2023-05-19T04:53:08.266Z,37.0657
2023-05-19T04:54:10.216Z,37.0684
2023-05-19T04:55:11.955Z,37.0743
2023-05-19T04:56:13.775Z,37.0713
2023-05-19T04:57:15.626Z,37.0652
2023-05-19T04:58:17.472Z,37.0618
2023-05-19T04:59:19.300Z,37.0525
2023-05-19T05:00:21.137Z,37.0525
2023-05-19T05:01:23.018Z,37.0451
2023-05-19T05:02:24.958Z,37.0450
2023-05-19T05:03:26.770Z,37.0521
2023-05-19T05:04:28.510Z,37.0475
2023-05-19T05:05:30.335Z,37.0374
2023-05-19T05:06:32.173Z,37.0263
2023-05-19T05:07:34.024Z,37.0240
2023-05-19T05:08:35.866Z,37.0348
2023-05-19T05:09:37.706Z,37.0364
2023-05-19T05:10:39.548Z,37.0236
2023-05-19T05:11:41.395Z,37.0068
2023-05-19T05:12:43.232Z,37.0077
2023-05-19T05:13:45.082Z,37.0042
2023-05-19T05:14:46.968Z,37.0058
2023-05-19T05:15:48.774Z,37.0105
2023-05-19T05:16:50.708Z,37.0035
2023-05-19T05:17:52.453Z,36.9937
2023-05-19T05:18:54.344Z,36.9899
2023-05-19T05:19:56.116Z,36.9965
2023-05-19T05:20:57.940Z,37.0125
2023-05-19T05:21:59.773Z,37.0220
2023-05-19T05:23:01.603Z,37.0276
2023-05-19T05:24:03.463Z,37.0179
2023-05-19T05:25:05.302Z,37.0135
2023-05-19T05:26:07.135Z,37.0098
2023-05-19T05:27:08.955Z,37.0081
2023-05-19T05:28:10.793Z,37.0022
2023-05-19T05:29:12.623Z,37.0000
2023-05-19T05:30:14.590Z,36.9933
2023-05-19T05:31:16.312Z,36.9918
2023-05-19T05:32:18.180Z,36.9799
2023-05-19T05:33:20.074Z,36.9736
2023-05-19T05:34:21.807Z,36.9844
2023-05-19T05:35:23.703Z,36.9859
2023-05-19T05:36:25.501Z,36.9979
2023-05-19T05:37:27.317Z,37.0099
2023-05-19T05:38:29.145Z,37.0171
2023-05-19T05:39:30.996Z,37.0209
2023-05-19T05:40:32.845Z,37.0045
2023-05-19T05:41:34.671Z,36.9973
2023-05-19T05:42:36.509Z,36.9706
2023-05-19T05:43:38.331Z,36.9600
2023-05-19T05:44:40.169Z,36.9613
2023-05-19T05:45:42.057Z,36.9450
2023-05-19T05:46:43.842Z,36.9303
2023-05-19T05:47:45.701Z,36.9121
2023-05-19T05:48:47.538Z,36.8989
2023-05-19T05:49:50.585Z,36.8901
2023-05-19T05:50:51.201Z,36.8922
2023-05-19T05:52:05.034Z,36.8916
2023-05-19T05:52:55.879Z,36.8910
2023-05-19T05:53:56.696Z,36.8763
2023-05-19T05:54:58.536Z,36.8774
2023-05-19T05:56:00.377Z,36.8661
2023-05-19T05:57:02.220Z,36.8546
2023-05-19T05:58:04.067Z,36.8374
2023-05-19T05:59:05.896Z,36.8202
2023-05-19T06:00:07.728Z,36.8126
2023-05-19T06:01:09.561Z,36.8057
2023-05-19T06:02:11.468Z,36.8041
2023-05-19T06:03:13.347Z,36.7929
2023-05-19T06:04:15.095Z,36.7776
2023-05-19T06:05:16.978Z,36.7735
2023-05-19T06:06:18.781Z,36.7799
2023-05-19T06:07:20.611Z,36.7757
2023-05-19T06:08:22.437Z,36.7689
2023-05-19T06:09:24.274Z,36.7649
2023-05-19T06:10:26.144Z,36.7542
2023-05-19T06:11:27.995Z,36.7444
2023-05-19T06:12:29.817Z,36.7397
2023-05-19T06:13:31.637Z,36.7289
2023-05-19T06:14:33.490Z,36.7194
2023-05-19T06:15:35.357Z,36.7106
2023-05-19T06:16:37.247Z,36.6933
2023-05-19T06:17:39.036Z,36.6902
2023-05-19T06:18:40.864Z,36.6744
2023-05-19T06:19:42.684Z,36.6468
2023-05-19T06:20:44.546Z,36.6295
2023-05-19T06:21:46.374Z,36.6080
2023-05-19T06:22:48.224Z,36.6006
2023-05-19T06:23:50.033Z,36.6009
2023-05-19T06:24:51.874Z,36.5962
2023-05-19T06:25:53.724Z,36.5811
2023-05-19T06:26:55.549Z,36.5733
2023-05-19T06:27:57.401Z,36.5690
2023-05-19T06:28:59.250Z,36.5737
2023-05-19T06:30:01.096Z,36.5871
2023-05-19T06:31:02.955Z,36.5875
2023-05-19T06:32:04.780Z,36.5899
2023-05-19T06:33:06.725Z,36.6130
2023-05-19T06:34:08.433Z,36.6188
2023-05-19T06:35:10.263Z,36.6234
2023-05-19T06:36:12.110Z,36.6269
2023-05-19T06:37:13.952Z,36.6319
2023-05-19T06:38:15.798Z,36.6361
2023-05-19T06:39:17.614Z,36.6265
2023-05-19T06:40:19.453Z,36.6266
2023-05-19T06:41:21.304Z,36.6360
2023-05-19T06:42:23.153Z,36.6425
2023-05-19T06:43:24.972Z,36.6417
2023-05-19T06:44:26.818Z,36.6435
2023-05-19T06:45:28.651Z,36.6258
2023-05-19T06:46:30.506Z,36.6170
2023-05-19T06:47:32.358Z,36.6148
2023-05-19T06:48:34.166Z,36.6083
2023-05-19T06:49:36.008Z,36.5955
2023-05-19T06:50:37.938Z,36.5953
2023-05-19T06:51:39.753Z,36.6018
2023-05-19T06:52:41.578Z,36.6105
2023-05-19T06:53:43.414Z,36.6202
2023-05-19T06:54:45.276Z,36.6309
2023-05-19T06:55:57.989Z,36.6375
2023-05-19T06:56:49.942Z,36.6527
2023-05-19T06:57:50.758Z,36.6644
2023-05-19T06:58:52.613Z,36.6581
2023-05-19T06:59:54.458Z,36.6544
2023-05-19T07:00:56.290Z,36.6580
2023-05-19T07:01:58.136Z,36.6661
2023-05-19T07:03:00.244Z,36.6791
2023-05-19T07:04:01.957Z,36.6949
2023-05-19T07:05:03.667Z,36.7128
2023-05-19T07:06:07.867Z,36.7248
2023-05-19T07:07:07.316Z,36.7407
2023-05-19T07:08:09.168Z,36.7583
2023-05-19T07:09:11.016Z,36.7662
2023-05-19T07:10:12.859Z,36.7628
2023-05-19T07:11:14.690Z,36.7613
2023-05-19T07:12:16.523Z,36.7509
2023-05-19T07:13:18.362Z,36.7417
2023-05-19T07:14:20.221Z,36.7325
2023-05-19T07:15:22.064Z,36.7300
2023-05-19T07:16:23.940Z,36.7251
2023-05-19T07:17:25.775Z,36.7220
2023-05-19T07:18:27.613Z,36.7150
2023-05-19T07:19:29.484Z,36.6996
2023-05-19T07:20:31.378Z,36.7120
2023-05-19T07:21:33.073Z,36.6977
2023-05-19T07:22:34.937Z,36.6864
2023-05-19T07:23:36.772Z,36.6718
2023-05-19T07:24:38.618Z,36.6602
2023-05-19T07:25:40.437Z,36.6487
2023-05-19T07:26:42.282Z,36.6448
2023-05-19T07:27:44.098Z,36.6387
2023-05-19T07:28:45.934Z,36.6377
2023-05-19T07:29:47.799Z,36.6387
2023-05-19T07:30:49.632Z,36.6313
2023-05-19T07:31:51.492Z,36.6267
2023-05-19T07:32:53.351Z,36.6277
2023-05-19T07:33:55.150Z,36.6347
2023-05-19T07:34:56.978Z,36.6370
2023-05-19T07:35:58.843Z,36.6381
2023-05-19T07:37:00.687Z,36.6437
2023-05-19T07:38:02.516Z,36.6438
2023-05-19T07:39:04.374Z,36.6440
2023-05-19T07:40:06.169Z,36.6527
2023-05-19T07:41:08.034Z,36.6612
2023-05-19T07:42:09.887Z,36.6678
2023-05-19T07:43:11.700Z,36.6676
2023-05-19T07:44:13.527Z,36.6632
2023-05-19T07:45:15.381Z,36.6692
2023-05-19T07:46:17.270Z,36.6764
2023-05-19T07:47:19.056Z,36.6850
2023-05-19T07:48:20.896Z,36.7030
2023-05-19T07:49:22.726Z,36.7094
2023-05-19T07:50:24.608Z,36.7075
2023-05-19T07:51:26.414Z,36.7074
2023-05-19T07:52:28.237Z,36.6988
2023-05-19T07:53:30.098Z,36.6943
2023-05-19T07:54:31.930Z,36.6851
2023-05-19T07:55:33.777Z,36.6822
2023-05-19T07:56:35.609Z,36.6837
2023-05-19T07:57:37.440Z,36.6922
2023-05-19T07:58:39.278Z,36.6985
2023-05-19T07:59:41.115Z,36.7086
2023-05-19T08:00:42.978Z,36.7120
2023-05-19T08:01:44.806Z,36.7035
2023-05-19T08:02:46.687Z,36.7211
2023-05-19T08:03:48.571Z,36.7415
2023-05-19T08:04:50.457Z,36.7562
2023-05-19T08:05:52.155Z,36.7752
2023-05-19T08:06:54.004Z,36.7800
2023-05-19T08:07:55.836Z,36.7919
2023-05-19T08:08:57.659Z,36.8137
2023-05-19T08:09:59.509Z,36.8156
2023-05-19T08:11:01.340Z,36.8282
2023-05-19T08:12:03.199Z,36.8257
2023-05-19T08:13:05.029Z,36.8254
2023-05-19T08:14:06.854Z,36.8392
2023-05-19T08:15:08.694Z,36.8450
2023-05-19T08:16:10.585Z,36.8445
2023-05-19T08:17:12.390Z,36.8435
2023-05-19T08:18:14.273Z,36.8424
2023-05-19T08:19:16.146Z,36.8329
2023-05-19T08:20:17.890Z,36.8263
2023-05-19T08:21:19.737Z,36.8299
2023-05-19T08:22:21.581Z,36.8297
2023-05-19T08:23:23.416Z,36.8270
2023-05-19T08:24:25.255Z,36.8283
2023-05-19T08:25:27.100Z,36.8404
2023-05-19T08:26:28.915Z,36.8451
2023-05-19T08:27:30.773Z,36.8439
2023-05-19T08:28:32.634Z,36.8505
2023-05-19T08:29:34.426Z,36.8554
2023-05-19T08:30:36.266Z,36.8616
2023-05-19T08:31:38.246Z,36.8657
2023-05-19T08:32:39.960Z,36.8764
2023-05-19T08:33:41.764Z,36.8831
2023-05-19T08:34:43.610Z,36.8842
2023-05-19T08:35:45.434Z,36.8907
2023-05-19T08:36:47.273Z,36.9048
2023-05-19T08:37:49.125Z,36.9254
2023-05-19T08:38:50.940Z,36.9398
2023-05-19T08:39:52.778Z,36.9575
2023-05-19T08:40:54.621Z,36.9717
2023-05-19T08:41:56.452Z,36.9782
2023-05-19T08:42:58.297Z,36.9805
2023-05-19T08:44:00.154Z,36.9868
2023-05-19T08:45:01.970Z,36.9901
2023-05-19T08:46:03.795Z,37.0020
2023-05-19T08:47:05.671Z,37.0092
2023-05-19T08:48:07.481Z,37.0129
2023-05-19T08:49:09.293Z,37.0033
2023-05-19T08:50:11.164Z,36.9923
2023-05-19T08:51:12.973Z,36.9845
2023-05-19T08:52:14.793Z,36.9857
2023-05-19T08:53:31.950Z,36.9906
2023-05-19T08:54:20.637Z,37.0059
2023-05-19T08:55:21.204Z,37.0112
2023-05-19T08:56:22.757Z,37.0028
2023-05-19T08:57:24.332Z,36.9975
2023-05-19T08:58:26.855Z,36.9985
2023-05-19T08:59:27.666Z,37.0025
2023-05-19T09:00:29.606Z,37.0007
2023-05-19T09:01:31.421Z,37.0060
2023-05-19T09:02:33.225Z,37.0214
2023-05-19T09:03:35.039Z,37.0397
2023-05-19T09:04:36.986Z,37.0542
2023-05-19T09:05:38.701Z,37.0604
2023-05-19T09:06:40.490Z,37.0775
2023-05-19T09:07:42.330Z,37.0979
2023-05-19T09:08:44.180Z,37.1107
2023-05-19T09:09:46.028Z,37.1240
2023-05-19T09:10:47.840Z,37.1271
2023-05-19T09:11:49.684Z,37.1336
2023-05-19T09:12:51.531Z,37.1343
2023-05-19T09:13:53.346Z,37.1290
2023-05-19T09:14:55.199Z,37.1297
2023-05-19T09:15:57.035Z,37.1282
2023-05-19T09:16:58.901Z,37.1416
2023-05-19T09:18:00.752Z,37.1606
2023-05-19T09:19:02.569Z,37.1668
2023-05-19T09:20:04.365Z,37.1866
2023-05-19T09:21:06.202Z,37.1977
2023-05-19T09:22:08.052Z,37.1926
2023-05-19T09:23:09.885Z,37.1946
2023-05-19T09:24:11.711Z,37.1901
2023-05-19T09:25:13.556Z,37.2012
2023-05-19T09:26:15.400Z,37.2070
2023-05-19T09:27:17.232Z,37.2009
2023-05-19T09:28:19.058Z,37.1923
2023-05-19T09:29:20.910Z,37.1880
2023-05-19T09:30:22.748Z,37.1861
2023-05-19T09:31:24.615Z,37.1921
2023-05-19T09:32:26.552Z,37.2032
2023-05-19T09:33:28.249Z,37.2163
2023-05-19T09:34:30.080Z,37.2119
2023-05-19T09:35:32.143Z,37.2123
2023-05-19T09:36:33.771Z,37.2153
2023-05-19T09:37:35.607Z,37.2236
2023-05-19T09:38:37.440Z,37.2288
2023-05-19T09:39:39.274Z,37.2350
2023-05-19T09:40:41.121Z,37.2331
2023-05-19T09:41:42.957Z,37.2360
2023-05-19T09:42:44.783Z,37.2454
2023-05-19T09:43:46.622Z,37.2371
2023-05-19T09:44:48.487Z,37.2356
2023-05-19T09:45:50.333Z,37.2369
2023-05-19T09:46:52.139Z,37.2484
2023-05-19T09:47:54.024Z,37.2437
2023-05-19T09:48:55.830Z,37.2484
2023-05-19T09:49:57.675Z,37.2526
2023-05-19T09:50:59.519Z,37.2628
2023-05-19T09:52:01.330Z,37.2741
2023-05-19T09:53:03.166Z,37.2828
2023-05-19T09:54:05.003Z,37.2893
2023-05-19T09:55:07.262Z,37.2992
2023-05-19T09:56:08.761Z,37.3348
2023-05-19T09:57:10.531Z,37.3536
2023-05-19T09:58:12.862Z,37.3849
2023-05-19T09:59:14.205Z,37.4142
2023-05-19T10:00:16.024Z,37.4407
2023-05-19T10:01:17.865Z,37.4592
2023-05-19T10:02:19.695Z,37.4753
2023-05-19T10:03:21.557Z,37.4885
2023-05-19T10:04:23.469Z,37.4954
2023-05-19T10:05:25.246Z,37.5004
2023-05-19T10:06:27.051Z,37.4893
2023-05-19T10:07:28.889Z,37.4883
2023-05-19T10:08:31.046Z,37.4902
2023-05-19T10:09:32.575Z,37.5040
2023-05-19T10:10:34.435Z,37.5072
2023-05-19T10:11:36.231Z,37.4964
2023-05-19T10:12:38.070Z,37.4859
2023-05-19T10:13:39.908Z,37.4778
2023-05-19T10:14:41.760Z,37.4795
2023-05-19T10:15:57.309Z,37.4803
2023-05-19T10:16:46.477Z,37.4939
2023-05-19T10:17:47.293Z,37.5116
2023-05-19T10:18:49.136Z,37.5341
2023-05-19T10:19:50.918Z,37.5451
2023-05-19T10:20:52.759Z,37.5445
2023-05-19T10:21:54.603Z,37.5757
2023-05-19T10:22:56.454Z,37.5893
2023-05-19T10:23:58.326Z,37.5882
2023-05-19T10:25:00.179Z,37.6012
2023-05-19T10:26:01.959Z,37.6107
2023-05-19T10:27:03.786Z,37.6124
2023-05-19T10:28:05.665Z,37.6150
2023-05-19T10:29:07.474Z,37.6101
2023-05-19T10:30:11.507Z,37.6238
2023-05-19T10:31:11.142Z,37.6495
2023-05-19T10:32:13.006Z,37.6664
2023-05-19T10:33:14.918Z,37.6866
2023-05-19T10:34:16.656Z,37.7110
2023-05-19T10:35:18.486Z,37.7285
2023-05-19T10:36:20.335Z,37.7357
2023-05-19T10:37:22.164Z,37.7261
2023-05-19T10:38:24.003Z,37.7265
2023-05-19T10:39:25.828Z,37.7329
2023-05-19T10:40:27.670Z,37.7506
2023-05-19T10:41:29.518Z,37.7744
2023-05-19T10:42:31.348Z,37.8023
2023-05-19T10:43:33.210Z,37.8084
2023-05-19T10:44:35.009Z,37.8195
2023-05-19T10:45:36.844Z,37.8334
2023-05-19T10:46:38.748Z,37.8331
2023-05-19T10:47:40.589Z,37.8351
2023-05-19T10:48:42.371Z,37.8357
2023-05-19T10:49:44.208Z,37.8264
2023-05-19T10:50:46.031Z,37.8076
2023-05-19T10:51:47.872Z,37.7889
2023-05-19T10:52:49.709Z,37.7983
2023-05-19T10:53:51.631Z,37.7994
2023-05-19T10:54:53.471Z,37.8115
2023-05-19T10:55:55.286Z,37.7988
2023-05-19T10:56:57.125Z,37.7826
2023-05-19T10:57:58.960Z,37.7679
2023-05-19T10:59:00.822Z,37.7655
2023-05-19T11:00:02.667Z,37.7590
2023-05-19T11:01:04.487Z,37.7659
2023-05-19T11:02:06.370Z,37.7616
2023-05-19T11:03:08.270Z,37.7648
2023-05-19T11:04:10.062Z,37.7533
2023-05-19T11:05:11.846Z,37.7352
2023-05-19T11:06:13.666Z,37.7208
2023-05-19T11:07:15.508Z,37.7267
2023-05-19T11:08:17.367Z,37.7365
2023-05-19T11:09:22.486Z,37.7392
2023-05-19T11:10:22.016Z,37.7425
2023-05-19T11:11:23.398Z,37.7453
2023-05-19T11:12:25.211Z,37.7551
2023-05-19T11:13:28.448Z,37.7539
2023-05-19T11:14:28.403Z,37.7606
2023-05-19T11:15:30.290Z,37.7719
2023-05-19T11:16:32.108Z,37.7823
2023-05-19T11:17:35.074Z,37.8000
2023-05-19T11:18:35.766Z,37.8302
2023-05-19T11:19:37.604Z,37.8439
2023-05-19T11:20:39.531Z,37.8680
2023-05-19T11:21:41.263Z,37.8925
2023-05-19T11:22:43.109Z,37.9253
2023-05-19T11:23:45.045Z,37.9649
2023-05-19T11:24:46.789Z,37.9932
2023-05-19T11:25:48.632Z,38.0086
2023-05-19T11:26:50.456Z,38.0366
2023-05-19T11:27:52.312Z,38.0625
2023-05-19T11:28:54.138Z,38.0812
2023-05-19T11:29:55.981Z,38.0969
2023-05-19T11:30:57.986Z,38.0902
2023-05-19T11:31:59.683Z,38.0737
2023-05-19T11:33:01.551Z,38.0623
2023-05-19T11:34:03.342Z,38.0714
2023-05-19T11:35:05.167Z,38.0761
2023-05-19T11:36:07.020Z,38.0834
2023-05-19T11:37:08.852Z,38.0780
2023-05-19T11:38:10.683Z,38.0696
2023-05-19T11:39:12.511Z,38.0709
2023-05-19T11:40:14.347Z,38.0732
2023-05-19T11:41:17.308Z,38.0660
2023-05-19T11:42:18.035Z,38.0671
2023-05-19T11:43:19.874Z,38.0614
2023-05-19T11:44:21.710Z,38.0548
2023-05-19T11:45:23.570Z,38.0496
2023-05-19T11:46:25.430Z,38.0449
2023-05-19T11:47:27.239Z,38.0494
2023-05-19T11:48:29.152Z,38.0629
2023-05-19T11:49:30.900Z,38.0798
2023-05-19T11:50:32.746Z,38.0974
2023-05-19T11:51:34.573Z,38.1114
2023-05-19T11:52:36.416Z,38.1107
2023-05-19T11:53:38.255Z,38.1166
2023-05-19T11:54:40.121Z,38.1192
2023-05-19T11:55:41.961Z,38.1269
2023-05-19T11:56:43.787Z,38.1437
2023-05-19T11:57:56.086Z,38.1688
2023-05-19T11:58:48.455Z,38.2122
2023-05-19T11:59:49.282Z,38.2381
2023-05-19T12:00:51.151Z,38.2292
2023-05-19T12:01:52.971Z,38.2217
2023-05-19T12:02:54.888Z,38.2083
2023-05-19T12:03:56.762Z,38.2052
2023-05-19T12:04:58.533Z,38.1964
2023-05-19T12:06:00.341Z,38.1855
2023-05-19T12:07:02.148Z,38.1731
2023-05-19T12:08:03.981Z,38.1642
2023-05-19T12:09:05.836Z,38.1695
2023-05-19T12:10:07.679Z,38.1807
2023-05-19T12:11:09.521Z,38.1904
2023-05-19T12:12:11.341Z,38.2010
2023-05-19T12:13:13.184Z,38.2112
2023-05-19T12:14:15.052Z,38.2265
2023-05-19T12:15:16.865Z,38.2420
2023-05-19T12:16:18.748Z,38.2465
2023-05-19T12:17:20.551Z,38.2793
2023-05-19T12:18:22.395Z,38.2879
2023-05-19T12:19:24.301Z,38.3113
2023-05-19T12:20:26.079Z,38.3406
2023-05-19T12:21:33.848Z,38.3665
2023-05-19T12:22:32.984Z,38.3768
2023-05-19T12:23:33.591Z,38.3890
2023-05-19T12:24:35.108Z,38.3947
2023-05-19T12:25:36.907Z,38.3891
2023-05-19T12:26:38.236Z,38.3896
2023-05-19T12:27:39.783Z,38.3943